G.bellini — IKGF — position and weather

sailwx.info

Track history (hours):
 
Tides and Currents Weather Stations Pressure Air Temp Water Temp Dewpoint Dewpoint Depression Visibility Wind Speed Wind Dir Waves Ship Positions

G.bellini

Last reported at 2014-Jul-31 15:06 UTC. Time now 2014-Jul-31 15:39 UTC.
Position N 42°56' E 010°33'.

Length 72 m; draft 3.6 m.

Type: Ship. MMSI: 247041900.

Date/timePositionNaut miles runAvg speedWind from/ knotsBaromVisibWave heightAir tempDewpointWater temp
2014-Jul-31 15:06N 42°56' E 010°33'4 2.6
2014-Jul-31 13:28N 42°52' E 010°30'10 0.2
2014-Jul-29 13:27N 42°43' E 010°27'10 2.1
2014-Jul-29 08:33N 42°39' E 010°14'16 0.9
2014-Jul-28 15:22N 42°50' E 010°28'4 1.4
2014-Jul-28 12:33N 42°54' E 010°31'2 0.1
2014-Jul-27 17:33N 42°52' E 010°30'2 2.0
2014-Jul-27 16:30N 42°54' E 010°32'6 6.3
2014-Jul-27 15:30N 42°49' E 010°27'1 0.0
2014-Jul-25 15:28N 42°50' E 010°27'4 1.5
2014-Jul-25 12:33N 42°53' E 010°31'3 2.2
2014-Jul-25 11:11N 42°56' E 010°33'7 0.4
2014-Jul-24 16:10N 42°50' E 010°28'8 0.3
2014-Jul-23 15:06N 42°56' E 010°33'7 4.3
2014-Jul-23 13:33N 42°50' E 010°29'1 0.1
2014-Jul-23 09:33N 42°51' E 010°29'1 0.8
2014-Jul-23 08:05N 42°50' E 010°28'5 3.4
2014-Jul-23 06:33N 42°54' E 010°32'2 1.8
2014-Jul-23 05:33N 42°56' E 010°34'8 0.6
2014-Jul-22 16:12N 42°49' E 010°27'8 9.9
2014-Jul-22 15:24N 42°56' E 010°33'7 8.6
2014-Jul-22 14:33N 42°50' E 010°27'6 5.7
2014-Jul-22 13:33N 42°44' E 010°27'9 1.8
2014-Jul-22 08:19N 42°39' E 010°16'1114.1
2014-Jul-22 07:32N 42°46' E 010°27'3 0.2
2014-Jul-21 15:29N 42°49' E 010°27'  
Track history (hours):
 
Tides and Currents Weather Stations Pressure Air Temp Water Temp Dewpoint Dewpoint Depression Visibility Wind Speed Wind Dir Waves Ship Positions

G.bellini

Last reported at 2014-Jul-31 15:06 UTC. Time now 2014-Jul-31 15:39 UTC.
Position N 42°56' E 010°33'.

Length 72 m; draft 3.6 m.

Type: Ship. MMSI: 247041900.

Date/timePositionNaut miles runAvg speedWind from/ knotsBaromVisibWave heightAir tempDewpointWater temp
2014-Jul-31 15:06N 42°56' E 010°33'4 2.6
2014-Jul-31 13:28N 42°52' E 010°30'10 0.2
2014-Jul-29 13:27N 42°43' E 010°27'10 2.1
2014-Jul-29 08:33N 42°39' E 010°14'16 0.9
2014-Jul-28 15:22N 42°50' E 010°28'4 1.4
2014-Jul-28 12:33N 42°54' E 010°31'2 0.1
2014-Jul-27 17:33N 42°52' E 010°30'2 2.0
2014-Jul-27 16:30N 42°54' E 010°32'6 6.3
2014-Jul-27 15:30N 42°49' E 010°27'1 0.0
2014-Jul-25 15:28N 42°50' E 010°27'4 1.5
2014-Jul-25 12:33N 42°53' E 010°31'3 2.2
2014-Jul-25 11:11N 42°56' E 010°33'7 0.4
2014-Jul-24 16:10N 42°50' E 010°28'8 0.3
2014-Jul-23 15:06N 42°56' E 010°33'7 4.3
2014-Jul-23 13:33N 42°50' E 010°29'1 0.1
2014-Jul-23 09:33N 42°51' E 010°29'1 0.8
2014-Jul-23 08:05N 42°50' E 010°28'5 3.4
2014-Jul-23 06:33N 42°54' E 010°32'2 1.8
2014-Jul-23 05:33N 42°56' E 010°34'8 0.6
2014-Jul-22 16:12N 42°49' E 010°27'8 9.9
2014-Jul-22 15:24N 42°56' E 010°33'7 8.6
2014-Jul-22 14:33N 42°50' E 010°27'6 5.7
2014-Jul-22 13:33N 42°44' E 010°27'9 1.8
2014-Jul-22 08:19N 42°39' E 010°16'1114.1
2014-Jul-22 07:32N 42°46' E 010°27'3 0.2
2014-Jul-21 15:29N 42°49' E 010°27'  

Dump ship's entire track history